My Meet Scores
Siena Walus, Gym Stars ETC - MyMeetScores.com
Top100 | Top Teams | Upcoming Meets | Completed Meets | Latest | Add Scores | Help| Support | Bookmark and Share

Siena Walus, Gym Stars ETC
Personal Bests
LevelVault BarsBeamFloorAA
XG9.4509.625 9.6759.60037.800
XP9.4259.125 9.1759.55037.025
Meet Scores
Date Meet Team Session Level Division Vault Bars Beam Floor AA
2020-02-14 Midwest Open Gym Stars ETC 10 XP Junior B 9.050 15 8.700 14T 9.175 5 9.525 2 36.450 10
2020-01-10 St Jude Benefit Meet Gym Stars ETC 6C XP Sr A 9.425 1 9.075 4 9.000 6 9.525 5 37.025 2
2019-12-20 2019 Women's Hawaiian Pineapple Classic Gym Stars ETC 3B XP Ages 13+ 9.275 3T 9.125 8 9.175 7 9.300 5 36.875 5
2019-12-06 Ultimate Wish Classic Gym Stars ETC 4 XP JR 9.175 4 8.900 5 8.750 8 9.550 1 36.375 4
2019-11-08 Illinois Judges Cup Gym Stars ETC P7 XP All Ages 9.100 8 9.025 3 8.675 13 9.525 2 36.325 5
2019-05-03 2019 Region 5 Xcel Championships Gym Stars ETC 05O XG JR F 9.225 5 9.300 15T 9.425 6T 9.200 19T 37.150 6
2019-04-05 2019 Illinois XG, XP, XD State Championships Gym Stars ETC 4 XG Jr F 9.450 2 9.250 6T 9.450 2 9.525 2 37.675 1
2019-03-08 Lucky Invite Gym Stars ETC B03 XG Jr B 9.275 2 9.475 2 9.675 1 9.375 3 37.800 1
2019-02-15 Women's Midwest Open Gym Stars ETC 10 XG Senior A 9.350 2 9.400 1 9.450 2T 9.300 13T 37.500 1
2019-02-01 St. Valentines Classic Gym Stars ETC 5B XG 12 yrs. 9.175 1 9.200 2 8.425 8 9.250 4T 36.050 2
2018-12-14 Hawaiian Pineapple Classic Gym Stars ETC 7A XG Age13 9.300 1 9.600 1 9.150 4 9.100 5T 37.150 1
2018-11-17 Paul Hamm Thanksgiving Class WOMENS Gym Stars ETC 8 XG Older 8.850 13 9.250 9T 9.075 6 9.150 10T 36.325 8
2018-04-26 Xcel Region 5 Championships Gym Stars ETC 7A XG Jr A 9.200 7 9.100 18 9.425 5 9.300 19 37.025 10
2018-04-06 XCEL State Championships Gym Stars ETC 2B XG Ch E 9.075 1 9.500 5 9.125 4T 9.450 1T 37.150 1
2018-03-09 Lucky Invitational Gym Stars ETC B06 XG Jr B 9.000 7T 9.625 2T 9.250 2 9.600 3T 37.475 1
2018-02-16 Big Classic Gym Stars ETC 9B XG Junior B 8.750 4T 9.350 3 9.300 1 9.575 1 36.975 2
2018-01-12 St Jude Benefit Meet Gym Stars ETC 8A XG JrA 9.175 6 9.550 3T 9.200 3 9.250 7T 37.175 2
2017-12-14 2017 Women's Hawaiian Pineapple Classic Gym Stars ETC 7A XG Age12 9.050 5 9.550 1 8.350 10T 9.275 2 36.225 2
2017-11-17 SCGA Classic Gym Stars ETC 5 XG Jr 8.950 1 9.400 2 7.925 4 9.100 2 35.375 2
2017-05-11 2017 Region 5 Xcel Championships Gym Stars ETC 5A XG Ch C 8.675 26T 9.275 7 8.725 18 8.975 26 35.650 18
2017-04-21 2017 Illinois Xcel State Championships Gym Stars ETC 1 XG Ch B 8.675 18T 9.475 1 9.050 1 9.275 6T 36.475 4
2017-03-10 Lucky Invitational Gym Stars ETC B10 XG Jr A 8.625 13T 9.450 5T 8.850 8T 8.750 13 35.675 9
2017-02-24 Kinetic Classic Gym Stars ETC 8 XG All Ages 8.850 14T 9.500 13T 8.875 21T 9.200 14 36.425 15
2017-02-10 IGI Chicago Style Gymnastics Meet Gym Stars ETC 631L XG JrA 9.000 2 8.700 11 8.775 8 9.050 9 35.525 7
2016-12-15 2016 Hawaiian Pineapple Sanction Gym Stars ETC 3B XG Ages 11U 8.375 12T 9.000 4 8.575 3 8.825 7 34.775 5
Get your scores on
a t-shirt, pin, or hoodie

www.lazysuits.com